Search for airport 
image banner adimage banner adimage banner ad
image banner ad

8C2 - Sully Muni

Located in Sully, United States

ICAO - 8C2, IATA -

Data provided by Airmate  

General information

Coordinates: N41°34'27" W92°50'48"
Elevation is 922 feet MSL.
Magnetic variation is 03° East
View others Airports in Iowa

Operational data

Special qualification required
Current time UTC:
Current local time:
Weather at : KGGI - Grinnell Rgnl ( 18 km )
METAR: KGGI 150935Z AUTO 00000KT 10SM CLR 16/11 A3010 RMK AO2 T01570113
View NOTAMs / SUP AIP / TFR affecting this airport [VIEW]
Communications frequencies: [VIEW]

Runways:

RWY identifierQFULength (ft)Width (ft)SurfaceLDA (ft)
082130120GRASS
262130120GRASS

Airport contact information

Address: Sully United States

Satellite view of 8C2